sensor_id;sensor_type;location;lat;lon;timestamp;pressure;altitude;pressure_sealevel;temperature;humidity
47080;BME280;33067;49.296;14.470;2022-12-29T00:01:17;96855.09;;;6.86;40.21
47080;BME280;33067;49.296;14.470;2022-12-29T00:03:45;96847.50;;;6.68;40.30
47080;BME280;33067;49.296;14.470;2022-12-29T00:06:08;96847.64;;;6.69;40.25
47080;BME280;33067;49.296;14.470;2022-12-29T00:08:34;96845.94;;;6.87;40.54
47080;BME280;33067;49.296;14.470;2022-12-29T00:10:59;96847.16;;;6.52;40.56
47080;BME280;33067;49.296;14.470;2022-12-29T00:13:25;96850.22;;;6.71;40.58
47080;BME280;33067;49.296;14.470;2022-12-29T00:15:51;96851.61;;;7.05;40.36
47080;BME280;33067;49.296;14.470;2022-12-29T00:18:16;96851.24;;;6.87;40.46
47080;BME280;33067;49.296;14.470;2022-12-29T00:20:41;96853.11;;;6.84;40.50
47080;BME280;33067;49.296;14.470;2022-12-29T00:23:08;96848.10;;;6.60;40.33
47080;BME280;33067;49.296;14.470;2022-12-29T00:25:32;96844.42;;;6.29;40.48
47080;BME280;33067;49.296;14.470;2022-12-29T00:27:57;96842.56;;;6.57;40.42
47080;BME280;33067;49.296;14.470;2022-12-29T00:30:23;96842.81;;;6.84;40.23
47080;BME280;33067;49.296;14.470;2022-12-29T00:32:47;96841.70;;;6.93;40.11
47080;BME280;33067;49.296;14.470;2022-12-29T00:35:19;96845.86;;;6.42;40.22
47080;BME280;33067;49.296;14.470;2022-12-29T00:37:39;96843.39;;;6.76;40.00
47080;BME280;33067;49.296;14.470;2022-12-29T00:40:04;96841.56;;;6.89;40.26
47080;BME280;33067;49.296;14.470;2022-12-29T00:42:28;96844.04;;;6.53;40.48
47080;BME280;33067;49.296;14.470;2022-12-29T00:44:54;96837.90;;;6.94;40.22
47080;BME280;33067;49.296;14.470;2022-12-29T00:47:19;96834.93;;;6.96;40.18
47080;BME280;33067;49.296;14.470;2022-12-29T00:49:45;96829.99;;;6.61;40.22
47080;BME280;33067;49.296;14.470;2022-12-29T00:52:12;96825.33;;;6.49;40.14
47080;BME280;33067;49.296;14.470;2022-12-29T00:54:38;96824.15;;;6.54;40.03
47080;BME280;33067;49.296;14.470;2022-12-29T00:57:02;96822.61;;;6.98;40.06
47080;BME280;33067;49.296;14.470;2022-12-29T00:59:27;96820.08;;;6.53;40.23
47080;BME280;33067;49.296;14.470;2022-12-29T01:01:53;96818.07;;;6.65;39.87
47080;BME280;33067;49.296;14.470;2022-12-29T01:04:19;96821.94;;;7.12;40.01
47080;BME280;33067;49.296;14.470;2022-12-29T01:06:44;96821.02;;;6.68;39.84
47080;BME280;33067;49.296;14.470;2022-12-29T01:09:10;96825.90;;;6.62;39.74
47080;BME280;33067;49.296;14.470;2022-12-29T01:11:34;96821.34;;;6.67;39.46
47080;BME280;33067;49.296;14.470;2022-12-29T01:14:00;96821.33;;;6.70;39.64
47080;BME280;33067;49.296;14.470;2022-12-29T01:16:25;96821.64;;;6.77;39.52
47080;BME280;33067;49.296;14.470;2022-12-29T01:18:50;96825.04;;;6.91;39.16
47080;BME280;33067;49.296;14.470;2022-12-29T01:21:15;96819.61;;;6.90;38.90
47080;BME280;33067;49.296;14.470;2022-12-29T01:23:41;96818.43;;;6.74;38.92
47080;BME280;33067;49.296;14.470;2022-12-29T01:26:10;96816.54;;;6.73;38.72
47080;BME280;33067;49.296;14.470;2022-12-29T01:28:32;96819.58;;;6.95;38.82
47080;BME280;33067;49.296;14.470;2022-12-29T01:31:00;96819.88;;;6.66;38.88
47080;BME280;33067;49.296;14.470;2022-12-29T01:33:23;96819.49;;;6.79;38.64
47080;BME280;33067;49.296;14.470;2022-12-29T01:35:49;96818.24;;;6.84;38.98
47080;BME280;33067;49.296;14.470;2022-12-29T01:38:15;96818.92;;;6.65;39.85
47080;BME280;33067;49.296;14.470;2022-12-29T01:40:44;96816.95;;;6.83;40.26
47080;BME280;33067;49.296;14.470;2022-12-29T01:43:08;96809.32;;;6.94;40.06
47080;BME280;33067;49.296;14.470;2022-12-29T01:45:30;96809.87;;;6.43;39.89
47080;BME280;33067;49.296;14.470;2022-12-29T01:47:58;96806.76;;;6.36;39.85
47080;BME280;33067;49.296;14.470;2022-12-29T01:50:25;96806.33;;;5.96;39.77
47080;BME280;33067;49.296;14.470;2022-12-29T01:52:51;96805.43;;;6.27;39.99
47080;BME280;33067;49.296;14.470;2022-12-29T01:55:12;96808.62;;;6.44;40.29
47080;BME280;33067;49.296;14.470;2022-12-29T01:57:40;96801.13;;;6.37;39.42
47080;BME280;33067;49.296;14.470;2022-12-29T02:00:05;96795.09;;;6.53;39.95
47080;BME280;33067;49.296;14.470;2022-12-29T02:02:30;96790.88;;;6.51;40.10
47080;BME280;33067;49.296;14.470;2022-12-29T02:04:55;96792.78;;;6.16;39.87
47080;BME280;33067;49.296;14.470;2022-12-29T02:07:22;96788.48;;;6.28;39.19
47080;BME280;33067;49.296;14.470;2022-12-29T02:09:46;96789.22;;;6.66;39.19
47080;BME280;33067;49.296;14.470;2022-12-29T02:12:10;96788.94;;;6.34;38.50
47080;BME280;33067;49.296;14.470;2022-12-29T02:14:36;96792.01;;;6.58;38.18
47080;BME280;33067;49.296;14.470;2022-12-29T02:17:08;96788.94;;;6.50;37.89
47080;BME280;33067;49.296;14.470;2022-12-29T02:22:02;96787.19;;;6.92;37.80
47080;BME280;33067;49.296;14.470;2022-12-29T02:26:55;96785.85;;;6.84;37.52
47080;BME280;33067;49.296;14.470;2022-12-29T02:29:19;96778.86;;;7.09;37.25
47080;BME280;33067;49.296;14.470;2022-12-29T02:31:38;96778.07;;;7.05;37.53
47080;BME280;33067;49.296;14.470;2022-12-29T02:34:07;96773.07;;;7.07;37.45
47080;BME280;33067;49.296;14.470;2022-12-29T02:36:32;96776.99;;;7.15;37.42
47080;BME280;33067;49.296;14.470;2022-12-29T02:38:59;96775.36;;;6.87;36.98
47080;BME280;33067;49.296;14.470;2022-12-29T02:41:21;96773.86;;;7.01;36.72
47080;BME280;33067;49.296;14.470;2022-12-29T02:43:48;96774.81;;;6.85;37.00
47080;BME280;33067;49.296;14.470;2022-12-29T02:46:12;96770.38;;;7.05;36.79
47080;BME280;33067;49.296;14.470;2022-12-29T02:48:37;96770.70;;;7.23;36.78
47080;BME280;33067;49.296;14.470;2022-12-29T02:51:01;96767.78;;;7.01;37.17
47080;BME280;33067;49.296;14.470;2022-12-29T02:53:24;96767.28;;;7.13;36.92
47080;BME280;33067;49.296;14.470;2022-12-29T02:55:49;96768.37;;;7.02;37.05
47080;BME280;33067;49.296;14.470;2022-12-29T02:58:17;96768.71;;;7.20;36.85
47080;BME280;33067;49.296;14.470;2022-12-29T03:00:48;96768.67;;;7.22;37.41
47080;BME280;33067;49.296;14.470;2022-12-29T03:03:17;96767.09;;;7.06;37.93
47080;BME280;33067;49.296;14.470;2022-12-29T03:05:49;96771.06;;;6.98;38.03
47080;BME280;33067;49.296;14.470;2022-12-29T03:08:03;96772.45;;;7.05;37.06
47080;BME280;33067;49.296;14.470;2022-12-29T03:13:04;96770.23;;;7.54;36.43
47080;BME280;33067;49.296;14.470;2022-12-29T03:15:31;96767.37;;;7.43;36.68
47080;BME280;33067;49.296;14.470;2022-12-29T03:17:56;96765.30;;;7.34;36.69
47080;BME280;33067;49.296;14.470;2022-12-29T03:20:20;96765.54;;;7.37;36.60
47080;BME280;33067;49.296;14.470;2022-12-29T03:22:44;96761.35;;;7.12;36.73
47080;BME280;33067;49.296;14.470;2022-12-29T03:25:11;96758.43;;;7.44;36.32
47080;BME280;33067;49.296;14.470;2022-12-29T03:27:36;96760.60;;;7.60;36.64
47080;BME280;33067;49.296;14.470;2022-12-29T03:30:01;96763.00;;;7.26;36.68
47080;BME280;33067;49.296;14.470;2022-12-29T03:32:28;96764.48;;;7.61;37.53
47080;BME280;33067;49.296;14.470;2022-12-29T03:34:50;96765.97;;;7.18;37.97
47080;BME280;33067;49.296;14.470;2022-12-29T03:37:18;96759.08;;;7.58;37.82
47080;BME280;33067;49.296;14.470;2022-12-29T03:39:41;96755.25;;;7.59;37.55
47080;BME280;33067;49.296;14.470;2022-12-29T03:42:09;96761.25;;;7.56;37.49
47080;BME280;33067;49.296;14.470;2022-12-29T03:44:33;96763.50;;;7.51;37.19
47080;BME280;33067;49.296;14.470;2022-12-29T03:46:57;96767.63;;;7.46;37.40
47080;BME280;33067;49.296;14.470;2022-12-29T03:49:23;96770.05;;;7.35;37.77
47080;BME280;33067;49.296;14.470;2022-12-29T03:51:48;96769.54;;;7.20;37.97
47080;BME280;33067;49.296;14.470;2022-12-29T03:54:14;96766.30;;;7.30;37.96
47080;BME280;33067;49.296;14.470;2022-12-29T03:56:39;96766.23;;;7.30;37.44
47080;BME280;33067;49.296;14.470;2022-12-29T03:59:04;96767.07;;;7.43;37.69
47080;BME280;33067;49.296;14.470;2022-12-29T04:01:30;96758.27;;;7.29;37.49
47080;BME280;33067;49.296;14.470;2022-12-29T04:03:55;96762.14;;;7.31;37.47
47080;BME280;33067;49.296;14.470;2022-12-29T04:06:21;96767.51;;;7.23;37.50
47080;BME280;33067;49.296;14.470;2022-12-29T04:08:47;96763.00;;;7.33;36.93
47080;BME280;33067;49.296;14.470;2022-12-29T04:11:12;96760.29;;;7.51;37.20
47080;BME280;33067;49.296;14.470;2022-12-29T04:13:38;96765.84;;;7.48;38.02
47080;BME280;33067;49.296;14.470;2022-12-29T04:16:04;96768.31;;;7.27;38.37
47080;BME280;33067;49.296;14.470;2022-12-29T04:18:29;96767.17;;;7.57;37.99
47080;BME280;33067;49.296;14.470;2022-12-29T04:20:54;96763.29;;;7.54;38.24
47080;BME280;33067;49.296;14.470;2022-12-29T04:23:20;96764.85;;;7.34;38.04
47080;BME280;33067;49.296;14.470;2022-12-29T04:25:46;96764.24;;;7.55;37.55
47080;BME280;33067;49.296;14.470;2022-12-29T04:28:11;96767.37;;;7.46;37.69
47080;BME280;33067;49.296;14.470;2022-12-29T04:30:36;96768.20;;;7.45;38.08
47080;BME280;33067;49.296;14.470;2022-12-29T04:33:01;96768.40;;;7.42;38.22
47080;BME280;33067;49.296;14.470;2022-12-29T04:35:27;96764.03;;;7.44;37.92
47080;BME280;33067;49.296;14.470;2022-12-29T04:37:53;96760.09;;;7.43;37.80
47080;BME280;33067;49.296;14.470;2022-12-29T04:40:18;96760.65;;;7.36;37.82
47080;BME280;33067;49.296;14.470;2022-12-29T04:42:43;96765.35;;;7.29;38.01
47080;BME280;33067;49.296;14.470;2022-12-29T04:45:09;96765.21;;;7.24;38.16
47080;BME280;33067;49.296;14.470;2022-12-29T04:47:34;96765.39;;;6.94;38.08
47080;BME280;33067;49.296;14.470;2022-12-29T04:50:00;96763.60;;;7.29;37.90
47080;BME280;33067;49.296;14.470;2022-12-29T04:52:25;96761.00;;;7.29;37.78
47080;BME280;33067;49.296;14.470;2022-12-29T04:54:51;96759.79;;;7.22;37.99
47080;BME280;33067;49.296;14.470;2022-12-29T04:57:16;96751.72;;;7.27;37.85
47080;BME280;33067;49.296;14.470;2022-12-29T04:59:41;96749.28;;;7.27;37.79
47080;BME280;33067;49.296;14.470;2022-12-29T05:02:07;96744.89;;;7.09;38.10
47080;BME280;33067;49.296;14.470;2022-12-29T05:04:32;96738.68;;;7.16;38.01
47080;BME280;33067;49.296;14.470;2022-12-29T05:06:58;96741.00;;;7.22;38.13
47080;BME280;33067;49.296;14.470;2022-12-29T05:09:23;96745.02;;;6.97;37.83
47080;BME280;33067;49.296;14.470;2022-12-29T05:11:49;96744.78;;;7.19;37.61
47080;BME280;33067;49.296;14.470;2022-12-29T05:14:15;96749.71;;;7.31;37.26
47080;BME280;33067;49.296;14.470;2022-12-29T05:16:40;96746.54;;;7.24;37.15
47080;BME280;33067;49.296;14.470;2022-12-29T05:19:06;96746.07;;;7.49;36.69
47080;BME280;33067;49.296;14.470;2022-12-29T05:21:31;96747.53;;;7.47;36.63
47080;BME280;33067;49.296;14.470;2022-12-29T05:23:57;96741.31;;;7.48;36.61
47080;BME280;33067;49.296;14.470;2022-12-29T05:26:22;96744.84;;;7.11;36.53
47080;BME280;33067;49.296;14.470;2022-12-29T05:28:47;96738.30;;;7.43;36.90
47080;BME280;33067;49.296;14.470;2022-12-29T05:31:13;96735.50;;;7.34;36.55
47080;BME280;33067;49.296;14.470;2022-12-29T05:33:38;96739.24;;;7.51;36.59
47080;BME280;33067;49.296;14.470;2022-12-29T05:36:04;96737.85;;;7.34;36.89
47080;BME280;33067;49.296;14.470;2022-12-29T05:38:29;96740.64;;;7.50;36.85
47080;BME280;33067;49.296;14.470;2022-12-29T05:40:54;96736.47;;;7.42;36.76
47080;BME280;33067;49.296;14.470;2022-12-29T05:43:19;96735.91;;;7.54;36.64
47080;BME280;33067;49.296;14.470;2022-12-29T05:45:48;96732.88;;;7.10;36.90
47080;BME280;33067;49.296;14.470;2022-12-29T05:48:10;96731.98;;;7.15;37.09
47080;BME280;33067;49.296;14.470;2022-12-29T05:50:36;96728.77;;;7.11;36.99
47080;BME280;33067;49.296;14.470;2022-12-29T05:53:01;96734.58;;;7.58;36.71
47080;BME280;33067;49.296;14.470;2022-12-29T05:55:27;96739.86;;;7.40;36.78
47080;BME280;33067;49.296;14.470;2022-12-29T05:57:52;96736.55;;;7.71;36.54
47080;BME280;33067;49.296;14.470;2022-12-29T06:00:18;96736.83;;;7.75;36.28
47080;BME280;33067;49.296;14.470;2022-12-29T06:02:43;96736.76;;;8.03;36.02
47080;BME280;33067;49.296;14.470;2022-12-29T06:05:08;96732.87;;;7.31;36.27
47080;BME280;33067;49.296;14.470;2022-12-29T06:07:34;96730.02;;;7.70;36.25
47080;BME280;33067;49.296;14.470;2022-12-29T06:09:59;96725.38;;;7.86;36.20
47080;BME280;33067;49.296;14.470;2022-12-29T06:12:25;96727.80;;;7.89;36.74
47080;BME280;33067;49.296;14.470;2022-12-29T06:14:50;96726.63;;;7.51;36.52
47080;BME280;33067;49.296;14.470;2022-12-29T06:17:15;96729.87;;;7.93;36.22
47080;BME280;33067;49.296;14.470;2022-12-29T06:19:41;96732.86;;;7.98;36.50
47080;BME280;33067;49.296;14.470;2022-12-29T06:22:06;96735.63;;;7.87;36.17
47080;BME280;33067;49.296;14.470;2022-12-29T06:24:32;96730.12;;;8.10;36.12
47080;BME280;33067;49.296;14.470;2022-12-29T06:26:58;96726.49;;;7.97;36.02
47080;BME280;33067;49.296;14.470;2022-12-29T06:29:23;96724.61;;;8.09;35.96
47080;BME280;33067;49.296;14.470;2022-12-29T06:31:48;96724.84;;;7.84;36.12
47080;BME280;33067;49.296;14.470;2022-12-29T06:34:14;96718.21;;;7.77;36.40
47080;BME280;33067;49.296;14.470;2022-12-29T06:36:40;96716.42;;;7.64;36.54
47080;BME280;33067;49.296;14.470;2022-12-29T06:39:05;96716.87;;;7.99;36.27
47080;BME280;33067;49.296;14.470;2022-12-29T06:41:30;96716.39;;;7.93;36.15
47080;BME280;33067;49.296;14.470;2022-12-29T06:43:56;96715.56;;;8.01;35.93
47080;BME280;33067;49.296;14.470;2022-12-29T06:46:21;96714.92;;;8.05;35.99
47080;BME280;33067;49.296;14.470;2022-12-29T06:48:46;96714.13;;;8.29;35.66
47080;BME280;33067;49.296;14.470;2022-12-29T06:51:12;96713.96;;;8.20;35.83
47080;BME280;33067;49.296;14.470;2022-12-29T06:53:37;96714.43;;;8.27;35.67
47080;BME280;33067;49.296;14.470;2022-12-29T06:56:04;96715.56;;;7.31;35.89
47080;BME280;33067;49.296;14.470;2022-12-29T06:58:28;96709.13;;;8.75;35.32
47080;BME280;33067;49.296;14.470;2022-12-29T07:00:54;96711.38;;;8.61;35.53
47080;BME280;33067;49.296;14.470;2022-12-29T07:03:19;96711.45;;;8.46;35.97
47080;BME280;33067;49.296;14.470;2022-12-29T07:05:45;96710.37;;;8.43;36.11
47080;BME280;33067;49.296;14.470;2022-12-29T07:08:10;96710.13;;;8.33;36.16
47080;BME280;33067;49.296;14.470;2022-12-29T07:10:35;96713.99;;;8.37;36.15
47080;BME280;33067;49.296;14.470;2022-12-29T07:13:01;96709.06;;;8.54;35.82
47080;BME280;33067;49.296;14.470;2022-12-29T07:15:27;96713.82;;;8.52;35.96
47080;BME280;33067;49.296;14.470;2022-12-29T07:17:52;96715.42;;;8.60;35.69
47080;BME280;33067;49.296;14.470;2022-12-29T07:20:18;96713.80;;;8.90;35.77
47080;BME280;33067;49.296;14.470;2022-12-29T07:22:43;96713.60;;;8.63;35.49
47080;BME280;33067;49.296;14.470;2022-12-29T07:25:09;96713.92;;;8.90;35.49
47080;BME280;33067;49.296;14.470;2022-12-29T07:27:34;96712.92;;;8.62;35.61
47080;BME280;33067;49.296;14.470;2022-12-29T07:30:00;96718.18;;;8.69;35.54
47080;BME280;33067;49.296;14.470;2022-12-29T07:32:25;96716.44;;;8.93;35.62
47080;BME280;33067;49.296;14.470;2022-12-29T07:34:50;96718.16;;;9.04;35.51
47080;BME280;33067;49.296;14.470;2022-12-29T07:37:16;96713.98;;;8.51;35.64
47080;BME280;33067;49.296;14.470;2022-12-29T07:39:41;96716.65;;;8.90;35.35
47080;BME280;33067;49.296;14.470;2022-12-29T07:42:06;96718.38;;;8.75;35.35
47080;BME280;33067;49.296;14.470;2022-12-29T07:44:32;96723.09;;;9.07;35.23
47080;BME280;33067;49.296;14.470;2022-12-29T07:46:57;96723.35;;;9.31;35.13
47080;BME280;33067;49.296;14.470;2022-12-29T07:49:22;96725.28;;;8.86;34.99
47080;BME280;33067;49.296;14.470;2022-12-29T07:51:48;96729.52;;;9.02;35.47
47080;BME280;33067;49.296;14.470;2022-12-29T07:54:13;96734.08;;;8.87;35.32
47080;BME280;33067;49.296;14.470;2022-12-29T07:56:39;96736.06;;;9.05;35.20
47080;BME280;33067;49.296;14.470;2022-12-29T07:59:04;96737.52;;;9.26;35.18
47080;BME280;33067;49.296;14.470;2022-12-29T08:01:29;96736.09;;;9.03;35.13
47080;BME280;33067;49.296;14.470;2022-12-29T08:03:55;96738.88;;;9.30;35.24
47080;BME280;33067;49.296;14.470;2022-12-29T08:06:20;96736.44;;;9.43;34.95
47080;BME280;33067;49.296;14.470;2022-12-29T08:08:46;96737.68;;;9.32;35.10
47080;BME280;33067;49.296;14.470;2022-12-29T08:11:11;96741.10;;;9.27;35.01
47080;BME280;33067;49.296;14.470;2022-12-29T08:13:36;96742.16;;;9.39;35.18
47080;BME280;33067;49.296;14.470;2022-12-29T08:16:02;96743.87;;;9.84;35.23
47080;BME280;33067;49.296;14.470;2022-12-29T08:18:28;96745.80;;;9.54;35.26
47080;BME280;33067;49.296;14.470;2022-12-29T08:20:53;96745.22;;;9.81;35.14
47080;BME280;33067;49.296;14.470;2022-12-29T08:23:18;96743.90;;;9.64;34.82
47080;BME280;33067;49.296;14.470;2022-12-29T08:25:44;96748.76;;;9.83;34.84
47080;BME280;33067;49.296;14.470;2022-12-29T08:28:09;96752.40;;;10.04;34.87
47080;BME280;33067;49.296;14.470;2022-12-29T08:30:36;96755.63;;;10.21;34.55
47080;BME280;33067;49.296;14.470;2022-12-29T08:33:00;96758.06;;;10.39;34.22
47080;BME280;33067;49.296;14.470;2022-12-29T08:35:25;96759.41;;;10.16;34.28
47080;BME280;33067;49.296;14.470;2022-12-29T08:37:50;96756.14;;;10.24;34.25
47080;BME280;33067;49.296;14.470;2022-12-29T08:40:16;96751.83;;;10.49;34.55
47080;BME280;33067;49.296;14.470;2022-12-29T08:42:41;96745.98;;;10.60;34.47
47080;BME280;33067;49.296;14.470;2022-12-29T08:45:07;96742.56;;;10.67;34.66
47080;BME280;33067;49.296;14.470;2022-12-29T08:47:31;96737.75;;;10.68;34.89
47080;BME280;33067;49.296;14.470;2022-12-29T08:49:57;96729.34;;;10.62;34.90
47080;BME280;33067;49.296;14.470;2022-12-29T08:52:22;96723.40;;;10.91;34.91
47080;BME280;33067;49.296;14.470;2022-12-29T08:54:47;96714.97;;;10.62;34.93
47080;BME280;33067;49.296;14.470;2022-12-29T08:57:13;96717.13;;;10.55;34.49
47080;BME280;33067;49.296;14.470;2022-12-29T08:59:38;96717.68;;;11.18;34.43
47080;BME280;33067;49.296;14.470;2022-12-29T09:02:03;96713.49;;;10.98;34.31
47080;BME280;33067;49.296;14.470;2022-12-29T09:04:28;96716.51;;;11.17;34.55
47080;BME280;33067;49.296;14.470;2022-12-29T09:06:54;96717.83;;;11.22;34.52
47080;BME280;33067;49.296;14.470;2022-12-29T09:09:19;96714.00;;;11.22;34.52
47080;BME280;33067;49.296;14.470;2022-12-29T09:11:45;96715.89;;;11.44;34.41
47080;BME280;33067;49.296;14.470;2022-12-29T09:14:10;96711.02;;;11.35;34.29
47080;BME280;33067;49.296;14.470;2022-12-29T09:16:36;96711.90;;;11.42;34.57
47080;BME280;33067;49.296;14.470;2022-12-29T09:19:01;96711.40;;;11.50;34.47
47080;BME280;33067;49.296;14.470;2022-12-29T09:21:27;96716.17;;;11.45;34.22
47080;BME280;33067;49.296;14.470;2022-12-29T09:23:52;96716.77;;;12.02;34.15
47080;BME280;33067;49.296;14.470;2022-12-29T09:26:18;96714.55;;;11.55;34.20
47080;BME280;33067;49.296;14.470;2022-12-29T09:28:43;96715.56;;;11.83;34.02
47080;BME280;33067;49.296;14.470;2022-12-29T09:31:08;96715.29;;;11.99;33.92
47080;BME280;33067;49.296;14.470;2022-12-29T09:33:35;96715.62;;;12.13;33.95
47080;BME280;33067;49.296;14.470;2022-12-29T09:36:00;96710.82;;;12.40;34.26
47080;BME280;33067;49.296;14.470;2022-12-29T09:38:26;96712.14;;;12.16;34.86
47080;BME280;33067;49.296;14.470;2022-12-29T09:40:53;96709.35;;;11.93;34.91
47080;BME280;33067;49.296;14.470;2022-12-29T09:43:35;96704.30;;;12.42;34.40
47080;BME280;33067;49.296;14.470;2022-12-29T09:45:44;96701.61;;;12.26;34.55
47080;BME280;33067;49.296;14.470;2022-12-29T09:48:13;96703.81;;;12.04;34.34
47080;BME280;33067;49.296;14.470;2022-12-29T09:50:34;96698.36;;;12.45;34.29
47080;BME280;33067;49.296;14.470;2022-12-29T09:53:03;96699.35;;;12.38;33.99
47080;BME280;33067;49.296;14.470;2022-12-29T09:55:29;96695.61;;;12.68;33.93
47080;BME280;33067;49.296;14.470;2022-12-29T09:57:52;96692.54;;;12.63;33.80
47080;BME280;33067;49.296;14.470;2022-12-29T10:00:16;96692.15;;;12.65;34.04
47080;BME280;33067;49.296;14.470;2022-12-29T10:02:40;96689.19;;;12.54;33.91
47080;BME280;33067;49.296;14.470;2022-12-29T10:05:08;96684.39;;;12.84;33.31
47080;BME280;33067;49.296;14.470;2022-12-29T10:07:38;96679.78;;;13.06;33.36
47080;BME280;33067;49.296;14.470;2022-12-29T10:10:03;96675.71;;;13.20;33.22
47080;BME280;33067;49.296;14.470;2022-12-29T10:12:26;96673.97;;;12.69;33.09
47080;BME280;33067;49.296;14.470;2022-12-29T10:14:56;96666.60;;;13.32;32.31
47080;BME280;33067;49.296;14.470;2022-12-29T10:17:21;96664.88;;;12.88;32.14
47080;BME280;33067;49.296;14.470;2022-12-29T10:19:51;96672.41;;;13.03;32.08
47080;BME280;33067;49.296;14.470;2022-12-29T10:22:13;96675.46;;;13.29;31.71
47080;BME280;33067;49.296;14.470;2022-12-29T10:24:28;96676.53;;;13.43;31.23
47080;BME280;33067;49.296;14.470;2022-12-29T10:26:53;96681.36;;;12.93;30.99
47080;BME280;33067;49.296;14.470;2022-12-29T10:29:20;96676.96;;;13.26;30.10
47080;BME280;33067;49.296;14.470;2022-12-29T10:31:47;96676.90;;;13.21;30.46
47080;BME280;33067;49.296;14.470;2022-12-29T10:34:17;96669.97;;;13.13;29.98
47080;BME280;33067;49.296;14.470;2022-12-29T10:36:39;96666.47;;;13.27;29.93
47080;BME280;33067;49.296;14.470;2022-12-29T10:39:05;96660.87;;;13.04;29.57
47080;BME280;33067;49.296;14.470;2022-12-29T10:41:31;96666.53;;;13.35;29.69
47080;BME280;33067;49.296;14.470;2022-12-29T10:43:54;96664.96;;;13.34;29.51
47080;BME280;33067;49.296;14.470;2022-12-29T10:46:19;96666.34;;;13.27;29.88
47080;BME280;33067;49.296;14.470;2022-12-29T10:48:43;96660.49;;;13.65;29.76
47080;BME280;33067;49.296;14.470;2022-12-29T10:51:09;96662.54;;;13.61;29.54
47080;BME280;33067;49.296;14.470;2022-12-29T10:53:38;96665.44;;;13.41;30.01
47080;BME280;33067;49.296;14.470;2022-12-29T10:56:01;96665.30;;;13.79;29.59
47080;BME280;33067;49.296;14.470;2022-12-29T10:58:26;96665.15;;;13.79;29.60
47080;BME280;33067;49.296;14.470;2022-12-29T11:00:53;96663.96;;;13.67;29.88
47080;BME280;33067;49.296;14.470;2022-12-29T11:05:45;96657.53;;;13.68;29.93
47080;BME280;33067;49.296;14.470;2022-12-29T11:08:12;96659.93;;;13.23;29.55
47080;BME280;33067;49.296;14.470;2022-12-29T11:10:36;96655.17;;;14.20;29.01
47080;BME280;33067;49.296;14.470;2022-12-29T11:12:59;96648.46;;;14.36;28.90
47080;BME280;33067;49.296;14.470;2022-12-29T11:15:23;96644.88;;;14.25;29.05
47080;BME280;33067;49.296;14.470;2022-12-29T11:17:51;96637.36;;;13.77;28.92
47080;BME280;33067;49.296;14.470;2022-12-29T11:20:27;96638.27;;;13.62;29.08
47080;BME280;33067;49.296;14.470;2022-12-29T11:22:44;96628.82;;;13.70;29.54
47080;BME280;33067;49.296;14.470;2022-12-29T11:25:10;96626.61;;;14.03;29.48
47080;BME280;33067;49.296;14.470;2022-12-29T11:27:31;96623.10;;;13.99;29.63
47080;BME280;33067;49.296;14.470;2022-12-29T11:29:57;96618.77;;;14.03;29.71
47080;BME280;33067;49.296;14.470;2022-12-29T11:32:24;96619.04;;;14.01;29.93
47080;BME280;33067;49.296;14.470;2022-12-29T11:34:48;96616.07;;;14.24;29.77
47080;BME280;33067;49.296;14.470;2022-12-29T11:37:14;96615.43;;;14.12;29.79
47080;BME280;33067;49.296;14.470;2022-12-29T11:39:40;96615.80;;;14.30;29.50
47080;BME280;33067;49.296;14.470;2022-12-29T11:42:04;96614.75;;;14.31;29.18
47080;BME280;33067;49.296;14.470;2022-12-29T11:44:35;96611.21;;;14.54;29.28
47080;BME280;33067;49.296;14.470;2022-12-29T11:46:54;96609.09;;;14.48;29.65
47080;BME280;33067;49.296;14.470;2022-12-29T11:49:21;96608.80;;;14.21;29.65
47080;BME280;33067;49.296;14.470;2022-12-29T11:51:46;96611.40;;;14.16;29.56
47080;BME280;33067;49.296;14.470;2022-12-29T11:54:16;96611.22;;;14.18;29.67
47080;BME280;33067;49.296;14.470;2022-12-29T11:56:38;96604.06;;;14.14;29.62
47080;BME280;33067;49.296;14.470;2022-12-29T12:01:29;96600.91;;;14.67;29.32
47080;BME280;33067;49.296;14.470;2022-12-29T12:03:58;96593.20;;;14.68;29.11
47080;BME280;33067;49.296;14.470;2022-12-29T12:06:20;96591.48;;;14.64;29.46
47080;BME280;33067;49.296;14.470;2022-12-29T12:08:46;96593.79;;;14.30;29.76
47080;BME280;33067;49.296;14.470;2022-12-29T12:11:12;96596.69;;;14.15;30.17
47080;BME280;33067;49.296;14.470;2022-12-29T12:13:38;96596.44;;;14.27;29.80
47080;BME280;33067;49.296;14.470;2022-12-29T12:16:04;96590.85;;;14.51;29.38
47080;BME280;33067;49.296;14.470;2022-12-29T12:18:39;96588.55;;;14.09;29.42
47080;BME280;33067;49.296;14.470;2022-12-29T12:20:53;96579.76;;;13.63;29.70
47080;BME280;33067;49.296;14.470;2022-12-29T12:23:25;96582.35;;;13.96;29.93
47080;BME280;33067;49.296;14.470;2022-12-29T12:25:48;96577.55;;;14.33;29.73
47080;BME280;33067;49.296;14.470;2022-12-29T12:28:11;96579.25;;;14.60;29.59
47080;BME280;33067;49.296;14.470;2022-12-29T12:30:37;96573.95;;;14.27;29.79
47080;BME280;33067;49.296;14.470;2022-12-29T12:33:02;96569.88;;;14.46;29.60
47080;BME280;33067;49.296;14.470;2022-12-29T12:35:29;96569.27;;;14.47;29.51
47080;BME280;33067;49.296;14.470;2022-12-29T12:38:01;96566.64;;;14.49;29.34
47080;BME280;33067;49.296;14.470;2022-12-29T12:40:28;96564.30;;;14.79;29.26
47080;BME280;33067;49.296;14.470;2022-12-29T12:42:47;96560.61;;;14.12;29.77
47080;BME280;33067;49.296;14.470;2022-12-29T12:47:43;96565.33;;;14.54;29.28
47080;BME280;33067;49.296;14.470;2022-12-29T12:50:07;96565.03;;;14.35;29.59
47080;BME280;33067;49.296;14.470;2022-12-29T12:52:29;96563.88;;;14.21;29.51
47080;BME280;33067;49.296;14.470;2022-12-29T12:55:00;96564.87;;;14.26;29.67
47080;BME280;33067;49.296;14.470;2022-12-29T12:57:17;96565.56;;;14.06;29.45
47080;BME280;33067;49.296;14.470;2022-12-29T12:59:43;96567.90;;;14.07;29.66
47080;BME280;33067;49.296;14.470;2022-12-29T13:02:11;96570.18;;;14.18;29.45